Time;durP1;ratioP1;P1;durP2;ratioP2;P2;SDS_P1;SDS_P2;PMS_P1;PMS_P2;Temp;Humidity;BMP_temperature;BMP_pressure;BME280_temperature;BME280_humidity;BME280_pressure;Samples;Min_cycle;Max_cycle;Signal;HPM_P1;HPM_P2
2022/12/02 04:44:32;;;;;;;;;;;21.30;58.50;;;;;;5027029;28;19999;-66
2022/12/02 04:46:58;;;;;;;;;;;21.30;57.20;;;;;;5070424;28;20378;-66
2022/12/02 04:49:25;;;;;;;;;;;21.30;58.20;;;;;;5065058;28;19956;-66
2022/12/02 04:51:51;;;;;;;;;;;21.30;59.30;;;;;;5070045;28;19919;-66
2022/12/02 04:54:18;;;;;;;;;;;21.30;59.10;;;;;;5073548;28;19912;-66
2022/12/02 04:56:44;;;;;;;;;;;21.30;58.70;;;;;;5071449;28;19912;-65
2022/12/02 04:59:11;;;;;;;;;;;21.30;58.60;;;;;;5073471;28;19940;-65
2022/12/02 05:01:38;;;;;;;;;;;21.30;58.80;;;;;;5071068;28;20365;-64
2022/12/02 05:04:04;;;;;;;;;;;21.40;58.00;;;;;;5070584;28;20362;-65
2022/12/02 05:06:31;;;;;;;;;;;21.30;57.80;;;;;;5069802;28;19959;-65
2022/12/02 05:08:57;;;;;;;;;;;21.30;57.70;;;;;;5073254;28;20358;-65
2022/12/02 05:11:24;;;;;;;;;;;21.20;58.30;;;;;;5075046;28;19995;-65
2022/12/02 05:13:50;;;;;;;;;;;21.20;58.80;;;;;;5065809;28;20123;-65
2022/12/02 05:16:17;;;;;;;;;;;21.30;58.30;;;;;;5067906;28;19961;-65
2022/12/02 05:18:44;;;;;;;;;;;21.30;58.00;;;;;;5073350;28;19912;-65
2022/12/02 05:21:10;;;;;;;;;;;21.20;58.00;;;;;;5075740;28;20293;-65
2022/12/02 05:23:37;;;;;;;;;;;21.20;55.30;;;;;;5075180;28;20010;-65
2022/12/02 05:26:04;;;;;;;;;;;21.10;56.10;;;;;;5077715;28;20041;-65
2022/12/02 05:28:30;;;;;;;;;;;21.10;56.70;;;;;;5073867;28;20276;-63
2022/12/02 05:30:57;;;;;;;;;;;21.20;57.50;;;;;;5073393;28;19912;-65
2022/12/02 05:33:23;;;;;;;;;;;21.20;57.10;;;;;;5062945;28;19916;-65
2022/12/02 05:35:50;;;;;;;;;;;21.20;58.70;;;;;;5072650;28;19990;-65
2022/12/02 05:38:17;;;;;;;;;;;21.10;58.50;;;;;;5069932;28;19996;-65
2022/12/02 05:40:43;;;;;;;;;;;21.10;58.20;;;;;;5067381;28;19995;-65
2022/12/02 05:43:17;;;;;;;;;;;21.20;58.20;;;;;;5077598;28;19916;-64
2022/12/02 05:45:44;;;;;;;;;;;21.20;57.00;;;;;;5090695;28;20301;-65
2022/12/02 05:48:14;;;;;;;;;;;21.20;56.90;;;;;;5073689;28;19913;-64
2022/12/02 05:50:41;;;;;;;;;;;21.30;57.20;;;;;;5069792;28;20367;-64
2022/12/02 05:53:26;;;;;;;;;;;21.30;56.90;;;;;;5070079;28;19908;-63
2022/12/02 05:55:53;;;;;;;;;;;21.30;59.10;;;;;;5085530;28;19959;-63
2022/12/02 05:58:19;;;;;;;;;;;21.30;57.20;;;;;;5068575;28;19916;-65
2022/12/02 06:00:53;;;;;;;;;;;21.30;58.10;;;;;;5070167;28;19919;-67
2022/12/02 06:03:20;;;;;;;;;;;21.20;59.20;;;;;;5070394;28;20281;-63
2022/12/02 06:05:47;;;;;;;;;;;21.10;60.60;;;;;;5069678;28;20286;-63
2022/12/02 06:08:20;;;;;;;;;;;20.90;60.20;;;;;;5070010;28;19916;-63
2022/12/02 06:10:50;;;;;;;;;;;20.90;61.10;;;;;;5066279;28;19917;-63
2022/12/02 06:13:18;;;;;;;;;;;20.80;62.00;;;;;;5066437;28;19913;-63
2022/12/02 06:15:45;;;;;;;;;;;20.70;62.60;;;;;;5059589;28;19956;-63
2022/12/02 06:18:21;;;;;;;;;;;20.70;62.60;;;;;;5050714;28;19912;-64
2022/12/02 06:20:51;;;;;;;;;;;20.70;63.10;;;;;;5070165;28;20376;-65
2022/12/02 06:23:18;;;;;;;;;;;20.70;63.90;;;;;;5055059;28;20363;-65
2022/12/02 06:25:44;;;;;;;;;;;20.70;64.70;;;;;;5070681;28;20310;-65
2022/12/02 06:28:11;;;;;;;;;;;20.60;62.50;;;;;;5040045;28;20007;-65
2022/12/02 06:30:38;;;;;;;;;;;20.60;62.70;;;;;;5056703;28;19919;-66
2022/12/02 06:33:05;;;;;;;;;;;20.60;62.70;;;;;;5066183;28;19919;-66
2022/12/02 06:35:32;;;;;;;;;;;20.60;61.10;;;;;;5061378;28;20477;-65
2022/12/02 06:37:59;;;;;;;;;;;20.60;60.60;;;;;;5067075;28;19932;-64
2022/12/02 06:48:41;;;;;;;;;;;20.50;62.90;;;;;;5011102;28;20330;-64
2022/12/02 06:51:17;;;;;;;;;;;20.50;63.00;;;;;;5014608;28;19913;-64
2022/12/02 06:53:44;;;;;;;;;;;20.50;62.80;;;;;;5009592;28;19921;-64
2022/12/02 06:56:17;;;;;;;;;;;20.50;63.10;;;;;;4995514;28;20652;-64
2022/12/02 06:58:44;;;;;;;;;;;20.50;62.50;;;;;;5013012;28;20011;-64
2022/12/02 07:01:14;;;;;;;;;;;20.50;62.30;;;;;;5009241;28;20448;-63
2022/12/02 07:03:46;;;;;;;;;;;20.50;62.30;;;;;;5016026;28;20133;-63
2022/12/02 07:06:13;;;;;;;;;;;20.50;61.00;;;;;;4990773;28;19921;-65
2022/12/02 07:08:40;;;;;;;;;;;20.40;61.10;;;;;;5009190;28;20235;-64
2022/12/02 07:11:48;;;;;;;;;;;20.50;62.40;;;;;;5013614;28;20029;-65
2022/12/02 07:14:31;;;;;;;;;;;20.50;62.70;;;;;;5003446;28;20063;-65
2022/12/02 07:17:00;;;;;;;;;;;20.50;63.10;;;;;;5008267;28;20367;-63
2022/12/02 07:19:30;;;;;;;;;;;20.40;63.80;;;;;;5007461;28;19917;-65
2022/12/02 07:21:56;;;;;;;;;;;20.40;63.70;;;;;;5018169;28;19925;-65
2022/12/02 07:24:23;;;;;;;;;;;20.40;63.50;;;;;;4990728;28;19972;-66
2022/12/02 07:26:50;;;;;;;;;;;20.40;64.50;;;;;;4989534;28;20336;-66
2022/12/02 07:29:20;;;;;;;;;;;20.50;63.90;;;;;;5014929;28;19944;-64
2022/12/02 07:31:46;;;;;;;;;;;20.40;63.50;;;;;;5008101;28;19918;-65
2022/12/02 07:34:13;;;;;;;;;;;20.40;62.20;;;;;;5011810;28;19968;-65
2022/12/02 07:36:40;;;;;;;;;;;20.30;62.40;;;;;;5012463;28;19917;-65
2022/12/02 07:39:06;;;;;;;;;;;20.40;63.40;;;;;;5013327;28;20012;-65
2022/12/02 07:41:33;;;;;;;;;;;20.30;64.40;;;;;;5013577;28;20410;-64
2022/12/02 07:44:00;;;;;;;;;;;20.30;65.00;;;;;;5028646;28;20000;-65
2022/12/02 22:37:28;;;;;;;;;;;20.80;68.80;;;;;;3308363;26;20382;-68
2022/12/02 22:39:54;;;;;;;;;;;20.90;67.70;;;;;;5078174;28;19950;-68
2022/12/02 22:42:21;;;;;;;;;;;20.80;66.50;;;;;;5092703;28;19962;-68
2022/12/02 22:44:47;;;;;;;;;;;20.80;66.70;;;;;;5086712;28;19914;-67
2022/12/02 22:47:14;;;;;;;;;;;20.90;64.40;;;;;;5090420;28;19961;-67
2022/12/02 22:49:41;;;;;;;;;;;21.00;67.20;;;;;;5092407;28;20358;-66
2022/12/02 22:52:07;;;;;;;;;;;21.10;66.40;;;;;;5092026;28;19934;-67
2022/12/02 22:54:34;;;;;;;;;;;21.10;64.70;;;;;;5060732;28;19951;-66
2022/12/02 22:57:00;;;;;;;;;;;21.30;66.10;;;;;;5068545;28;20275;-66
2022/12/02 22:59:27;;;;;;;;;;;21.50;65.70;;;;;;5091848;28;20359;-67
2022/12/02 23:01:54;;;;;;;;;;;21.70;64.50;;;;;;5091513;28;19994;-66
2022/12/02 23:04:20;;;;;;;;;;;21.70;62.40;;;;;;5089855;28;19910;-67
2022/12/02 23:06:47;;;;;;;;;;;21.80;62.00;;;;;;5076477;28;19913;-67
2022/12/02 23:09:14;;;;;;;;;;;21.80;60.90;;;;;;5088823;28;19916;-67
2022/12/02 23:11:40;;;;;;;;;;;21.70;61.80;;;;;;5092200;28;20362;-67
2022/12/02 23:14:07;;;;;;;;;;;21.50;63.30;;;;;;5092246;28;19919;-67
2022/12/02 23:16:33;;;;;;;;;;;21.40;64.80;;;;;;5072017;28;19917;-67
2022/12/02 23:19:00;;;;;;;;;;;21.20;63.30;;;;;;5085985;28;19915;-67
2022/12/02 23:21:27;;;;;;;;;;;21.10;62.90;;;;;;5091698;28;19912;-67
2022/12/02 23:23:53;;;;;;;;;;;21.00;63.30;;;;;;5092081;28;20355;-67
2022/12/02 23:26:20;;;;;;;;;;;21.00;62.60;;;;;;5092183;28;19918;-67
2022/12/02 23:28:46;;;;;;;;;;;20.90;62.70;;;;;;5092570;28;20026;-66
2022/12/02 23:31:13;;;;;;;;;;;21.20;63.10;;;;;;5091933;28;19908;-66
2022/12/02 23:33:40;;;;;;;;;;;21.30;60.90;;;;;;5092297;28;19912;-67
